sensor_id;sensor_type;location;lat;lon;timestamp;P1;durP1;ratioP1;P2;durP2;ratioP2
42866;SDS011;39461;40.948;73.006;2023-04-16T00:00:53;32.33;;;6.28;;
42866;SDS011;39461;40.948;73.006;2023-04-16T00:03:26;25.48;;;6.35;;
42866;SDS011;39461;40.948;73.006;2023-04-16T00:05:59;35.15;;;5.60;;
42866;SDS011;39461;40.948;73.006;2023-04-16T00:08:33;32.63;;;6.45;;
42866;SDS011;39461;40.948;73.006;2023-04-16T00:11:06;39.85;;;6.97;;
42866;SDS011;39461;40.948;73.006;2023-04-16T00:13:39;38.85;;;6.82;;
42866;SDS011;39461;40.948;73.006;2023-04-16T00:16:13;30.05;;;5.90;;
42866;SDS011;39461;40.948;73.006;2023-04-16T00:18:46;42.22;;;6.30;;
42866;SDS011;39461;40.948;73.006;2023-04-16T00:21:19;30.83;;;6.65;;
42866;SDS011;39461;40.948;73.006;2023-04-16T00:23:52;27.23;;;6.28;;
42866;SDS011;39461;40.948;73.006;2023-04-16T00:26:25;33.38;;;6.82;;
42866;SDS011;39461;40.948;73.006;2023-04-16T00:28:59;38.22;;;6.95;;
42866;SDS011;39461;40.948;73.006;2023-04-16T00:31:33;21.50;;;5.45;;
42866;SDS011;39461;40.948;73.006;2023-04-16T00:34:06;47.35;;;6.82;;
42866;SDS011;39461;40.948;73.006;2023-04-16T00:36:33;33.90;;;7.05;;
42866;SDS011;39461;40.948;73.006;2023-04-16T00:39:05;27.40;;;6.40;;
42866;SDS011;39461;40.948;73.006;2023-04-16T00:41:38;30.38;;;7.25;;
42866;SDS011;39461;40.948;73.006;2023-04-16T00:44:12;36.53;;;6.47;;
42866;SDS011;39461;40.948;73.006;2023-04-16T00:46:46;29.55;;;9.38;;
42866;SDS011;39461;40.948;73.006;2023-04-16T00:49:19;40.00;;;10.77;;
42866;SDS011;39461;40.948;73.006;2023-04-16T00:51:52;37.85;;;10.80;;
42866;SDS011;39461;40.948;73.006;2023-04-16T00:54:26;34.55;;;9.48;;
42866;SDS011;39461;40.948;73.006;2023-04-16T00:56:59;41.00;;;9.90;;
42866;SDS011;39461;40.948;73.006;2023-04-16T00:59:36;38.38;;;9.82;;
42866;SDS011;39461;40.948;73.006;2023-04-16T01:02:09;31.70;;;8.88;;
42866;SDS011;39461;40.948;73.006;2023-04-16T01:04:43;49.15;;;10.18;;
42866;SDS011;39461;40.948;73.006;2023-04-16T01:07:16;42.55;;;10.63;;
42866;SDS011;39461;40.948;73.006;2023-04-16T01:09:49;33.95;;;8.57;;
42866;SDS011;39461;40.948;73.006;2023-04-16T01:12:22;31.52;;;8.93;;
42866;SDS011;39461;40.948;73.006;2023-04-16T01:14:57;37.92;;;8.65;;
42866;SDS011;39461;40.948;73.006;2023-04-16T01:17:31;54.80;;;9.45;;
42866;SDS011;39461;40.948;73.006;2023-04-16T01:20:04;32.95;;;8.15;;
42866;SDS011;39461;40.948;73.006;2023-04-16T01:22:39;39.03;;;8.48;;
42866;SDS011;39461;40.948;73.006;2023-04-16T01:25:13;30.80;;;7.13;;
42866;SDS011;39461;40.948;73.006;2023-04-16T01:27:49;33.75;;;7.15;;
42866;SDS011;39461;40.948;73.006;2023-04-16T01:30:23;39.67;;;7.45;;
42866;SDS011;39461;40.948;73.006;2023-04-16T01:32:56;28.30;;;6.05;;
42866;SDS011;39461;40.948;73.006;2023-04-16T01:35:29;34.45;;;5.53;;
42866;SDS011;39461;40.948;73.006;2023-04-16T01:38:03;28.63;;;5.75;;
42866;SDS011;39461;40.948;73.006;2023-04-16T01:40:37;44.22;;;6.85;;
42866;SDS011;39461;40.948;73.006;2023-04-16T01:43:10;32.15;;;5.50;;
42866;SDS011;39461;40.948;73.006;2023-04-16T01:45:44;29.83;;;4.85;;
42866;SDS011;39461;40.948;73.006;2023-04-16T01:48:17;26.00;;;5.50;;
42866;SDS011;39461;40.948;73.006;2023-04-16T01:50:50;30.35;;;5.70;;
42866;SDS011;39461;40.948;73.006;2023-04-16T01:53:19;28.17;;;4.25;;
42866;SDS011;39461;40.948;73.006;2023-04-16T01:58:52;35.25;;;4.75;;
42866;SDS011;39461;40.948;73.006;2023-04-16T02:01:27;28.88;;;4.10;;
42866;SDS011;39461;40.948;73.006;2023-04-16T02:04:03;26.95;;;4.15;;
42866;SDS011;39461;40.948;73.006;2023-04-16T02:06:38;30.08;;;4.53;;
42866;SDS011;39461;40.948;73.006;2023-04-16T02:09:13;70.13;;;8.10;;
42866;SDS011;39461;40.948;73.006;2023-04-16T02:11:48;31.08;;;4.85;;
42866;SDS011;39461;40.948;73.006;2023-04-16T02:14:24;26.02;;;4.13;;
42866;SDS011;39461;40.948;73.006;2023-04-16T02:16:59;32.78;;;4.30;;
42866;SDS011;39461;40.948;73.006;2023-04-16T02:19:34;32.17;;;4.93;;
42866;SDS011;39461;40.948;73.006;2023-04-16T02:22:10;25.27;;;4.40;;
42866;SDS011;39461;40.948;73.006;2023-04-16T02:24:42;28.60;;;5.07;;
42866;SDS011;39461;40.948;73.006;2023-04-16T02:27:16;25.67;;;5.85;;
42866;SDS011;39461;40.948;73.006;2023-04-16T02:29:49;33.88;;;5.78;;
42866;SDS011;39461;40.948;73.006;2023-04-16T02:32:18;33.63;;;5.70;;
42866;SDS011;39461;40.948;73.006;2023-04-16T02:34:45;25.50;;;6.38;;
42866;SDS011;39461;40.948;73.006;2023-04-16T02:37:12;30.30;;;5.90;;
42866;SDS011;39461;40.948;73.006;2023-04-16T02:39:47;22.15;;;5.15;;
42866;SDS011;39461;40.948;73.006;2023-04-16T02:42:23;26.10;;;4.45;;
42866;SDS011;39461;40.948;73.006;2023-04-16T02:44:58;28.45;;;4.43;;
42866;SDS011;39461;40.948;73.006;2023-04-16T02:47:33;24.67;;;4.38;;
42866;SDS011;39461;40.948;73.006;2023-04-16T02:50:08;25.25;;;4.10;;
42866;SDS011;39461;40.948;73.006;2023-04-16T02:52:38;21.65;;;4.43;;
42866;SDS011;39461;40.948;73.006;2023-04-16T02:55:11;19.90;;;4.10;;
42866;SDS011;39461;40.948;73.006;2023-04-16T02:57:44;28.55;;;4.55;;
42866;SDS011;39461;40.948;73.006;2023-04-16T03:00:25;36.25;;;4.97;;
42866;SDS011;39461;40.948;73.006;2023-04-16T03:02:58;27.40;;;3.60;;
42866;SDS011;39461;40.948;73.006;2023-04-16T03:05:31;27.38;;;5.03;;
42866;SDS011;39461;40.948;73.006;2023-04-16T03:08:04;19.80;;;3.88;;
42866;SDS011;39461;40.948;73.006;2023-04-16T03:10:37;26.65;;;5.15;;
42866;SDS011;39461;40.948;73.006;2023-04-16T03:13:12;27.63;;;7.38;;
42866;SDS011;39461;40.948;73.006;2023-04-16T03:15:48;35.63;;;6.60;;
42866;SDS011;39461;40.948;73.006;2023-04-16T03:18:21;22.63;;;7.97;;
42866;SDS011;39461;40.948;73.006;2023-04-16T03:20:54;35.75;;;8.20;;
42866;SDS011;39461;40.948;73.006;2023-04-16T03:23:34;24.90;;;4.63;;
42866;SDS011;39461;40.948;73.006;2023-04-16T03:26:07;28.42;;;4.60;;
42866;SDS011;39461;40.948;73.006;2023-04-16T03:28:40;18.20;;;3.67;;
42866;SDS011;39461;40.948;73.006;2023-04-16T03:31:14;22.73;;;3.33;;
42866;SDS011;39461;40.948;73.006;2023-04-16T03:33:47;26.88;;;3.75;;
42866;SDS011;39461;40.948;73.006;2023-04-16T03:36:20;26.17;;;4.38;;
42866;SDS011;39461;40.948;73.006;2023-04-16T03:38:53;29.80;;;4.78;;
42866;SDS011;39461;40.948;73.006;2023-04-16T03:41:26;19.30;;;3.90;;
42866;SDS011;39461;40.948;73.006;2023-04-16T03:44:00;25.98;;;3.97;;
42866;SDS011;39461;40.948;73.006;2023-04-16T03:46:33;21.63;;;4.10;;
42866;SDS011;39461;40.948;73.006;2023-04-16T03:49:07;25.38;;;4.20;;
42866;SDS011;39461;40.948;73.006;2023-04-16T03:51:46;28.17;;;4.70;;
42866;SDS011;39461;40.948;73.006;2023-04-16T03:54:19;28.92;;;5.22;;
42866;SDS011;39461;40.948;73.006;2023-04-16T03:56:48;27.90;;;5.18;;
42866;SDS011;39461;40.948;73.006;2023-04-16T04:02:23;38.70;;;6.00;;
42866;SDS011;39461;40.948;73.006;2023-04-16T04:04:59;29.55;;;6.47;;
42866;SDS011;39461;40.948;73.006;2023-04-16T04:07:34;32.38;;;5.88;;
42866;SDS011;39461;40.948;73.006;2023-04-16T04:10:09;33.03;;;7.07;;
42866;SDS011;39461;40.948;73.006;2023-04-16T04:12:44;31.17;;;5.97;;
42866;SDS011;39461;40.948;73.006;2023-04-16T04:15:19;30.70;;;7.63;;
42866;SDS011;39461;40.948;73.006;2023-04-16T04:17:54;27.00;;;6.45;;
42866;SDS011;39461;40.948;73.006;2023-04-16T04:23:27;28.52;;;6.38;;
42866;SDS011;39461;40.948;73.006;2023-04-16T04:26:03;34.30;;;5.72;;
42866;SDS011;39461;40.948;73.006;2023-04-16T04:28:39;30.10;;;5.82;;
42866;SDS011;39461;40.948;73.006;2023-04-16T04:31:15;41.28;;;7.32;;
42866;SDS011;39461;40.948;73.006;2023-04-16T04:33:48;33.53;;;8.23;;
42866;SDS011;39461;40.948;73.006;2023-04-16T04:36:15;34.33;;;7.40;;
42866;SDS011;39461;40.948;73.006;2023-04-16T04:38:47;28.20;;;5.90;;
42866;SDS011;39461;40.948;73.006;2023-04-16T04:41:20;38.75;;;6.18;;
42866;SDS011;39461;40.948;73.006;2023-04-16T04:43:54;23.42;;;5.18;;
42866;SDS011;39461;40.948;73.006;2023-04-16T04:46:29;30.58;;;7.03;;
42866;SDS011;39461;40.948;73.006;2023-04-16T04:49:02;30.50;;;5.35;;
42866;SDS011;39461;40.948;73.006;2023-04-16T04:51:35;24.88;;;4.30;;
42866;SDS011;39461;40.948;73.006;2023-04-16T04:54:09;29.23;;;5.13;;
42866;SDS011;39461;40.948;73.006;2023-04-16T04:56:48;30.35;;;4.30;;
42866;SDS011;39461;40.948;73.006;2023-04-16T04:59:23;21.23;;;4.78;;
42866;SDS011;39461;40.948;73.006;2023-04-16T05:01:59;23.95;;;4.45;;
42866;SDS011;39461;40.948;73.006;2023-04-16T05:04:33;26.52;;;3.97;;
42866;SDS011;39461;40.948;73.006;2023-04-16T05:07:07;32.50;;;4.85;;
42866;SDS011;39461;40.948;73.006;2023-04-16T05:09:40;35.67;;;3.80;;
42866;SDS011;39461;40.948;73.006;2023-04-16T05:12:13;32.53;;;5.13;;
42866;SDS011;39461;40.948;73.006;2023-04-16T05:14:48;35.45;;;4.47;;
42866;SDS011;39461;40.948;73.006;2023-04-16T05:17:21;31.88;;;4.18;;
42866;SDS011;39461;40.948;73.006;2023-04-16T05:19:56;31.13;;;4.20;;
42866;SDS011;39461;40.948;73.006;2023-04-16T05:22:29;25.17;;;4.20;;
42866;SDS011;39461;40.948;73.006;2023-04-16T05:25:02;27.38;;;4.60;;
42866;SDS011;39461;40.948;73.006;2023-04-16T05:27:35;33.05;;;4.38;;
42866;SDS011;39461;40.948;73.006;2023-04-16T05:30:09;30.50;;;4.30;;
42866;SDS011;39461;40.948;73.006;2023-04-16T05:32:50;25.45;;;3.75;;
42866;SDS011;39461;40.948;73.006;2023-04-16T05:35:23;22.58;;;3.40;;
42866;SDS011;39461;40.948;73.006;2023-04-16T05:37:56;22.00;;;4.07;;
42866;SDS011;39461;40.948;73.006;2023-04-16T05:40:30;19.40;;;3.72;;
42866;SDS011;39461;40.948;73.006;2023-04-16T05:43:03;32.85;;;3.92;;
42866;SDS011;39461;40.948;73.006;2023-04-16T05:45:38;28.05;;;3.60;;
42866;SDS011;39461;40.948;73.006;2023-04-16T05:48:11;24.08;;;3.53;;
42866;SDS011;39461;40.948;73.006;2023-04-16T05:50:45;26.98;;;4.15;;
42866;SDS011;39461;40.948;73.006;2023-04-16T05:53:18;31.83;;;4.65;;
42866;SDS011;39461;40.948;73.006;2023-04-16T05:55:57;41.90;;;6.32;;
42866;SDS011;39461;40.948;73.006;2023-04-16T05:58:30;23.13;;;4.75;;
42866;SDS011;39461;40.948;73.006;2023-04-16T06:01:03;30.08;;;4.63;;
42866;SDS011;39461;40.948;73.006;2023-04-16T06:03:36;28.35;;;4.30;;
42866;SDS011;39461;40.948;73.006;2023-04-16T06:06:09;30.50;;;4.93;;
42866;SDS011;39461;40.948;73.006;2023-04-16T06:08:43;31.08;;;5.32;;
42866;SDS011;39461;40.948;73.006;2023-04-16T06:11:20;30.58;;;5.18;;
42866;SDS011;39461;40.948;73.006;2023-04-16T06:13:55;33.10;;;4.70;;
42866;SDS011;39461;40.948;73.006;2023-04-16T06:16:30;23.70;;;4.07;;
42866;SDS011;39461;40.948;73.006;2023-04-16T06:19:05;22.13;;;4.13;;
42866;SDS011;39461;40.948;73.006;2023-04-16T06:21:38;40.03;;;5.18;;
42866;SDS011;39461;40.948;73.006;2023-04-16T06:24:13;30.85;;;4.65;;
42866;SDS011;39461;40.948;73.006;2023-04-16T06:29:47;26.35;;;3.78;;
42866;SDS011;39461;40.948;73.006;2023-04-16T06:32:25;24.02;;;4.20;;
42866;SDS011;39461;40.948;73.006;2023-04-16T06:34:58;24.75;;;4.32;;
42866;SDS011;39461;40.948;73.006;2023-04-16T06:37:26;28.38;;;4.13;;
42866;SDS011;39461;40.948;73.006;2023-04-16T06:39:59;21.75;;;3.70;;
42866;SDS011;39461;40.948;73.006;2023-04-16T06:42:38;26.20;;;4.22;;
42866;SDS011;39461;40.948;73.006;2023-04-16T06:45:11;23.98;;;3.85;;
42866;SDS011;39461;40.948;73.006;2023-04-16T06:47:44;25.60;;;4.70;;
42866;SDS011;39461;40.948;73.006;2023-04-16T06:50:18;25.95;;;4.57;;
42866;SDS011;39461;40.948;73.006;2023-04-16T06:52:54;25.33;;;5.03;;
42866;SDS011;39461;40.948;73.006;2023-04-16T06:55:27;30.02;;;4.65;;
42866;SDS011;39461;40.948;73.006;2023-04-16T06:58:02;34.65;;;4.65;;
42866;SDS011;39461;40.948;73.006;2023-04-16T07:00:35;29.90;;;4.22;;
42866;SDS011;39461;40.948;73.006;2023-04-16T07:03:08;24.27;;;4.38;;
42866;SDS011;39461;40.948;73.006;2023-04-16T07:05:41;21.58;;;3.25;;
42866;SDS011;39461;40.948;73.006;2023-04-16T07:08:14;23.33;;;4.57;;
42866;SDS011;39461;40.948;73.006;2023-04-16T07:10:47;26.55;;;3.58;;
42866;SDS011;39461;40.948;73.006;2023-04-16T07:13:20;24.55;;;3.45;;
42866;SDS011;39461;40.948;73.006;2023-04-16T07:15:54;24.60;;;3.35;;
42866;SDS011;39461;40.948;73.006;2023-04-16T07:18:29;26.58;;;4.05;;
42866;SDS011;39461;40.948;73.006;2023-04-16T07:21:04;27.70;;;4.40;;
42866;SDS011;39461;40.948;73.006;2023-04-16T07:26:38;27.08;;;4.18;;
42866;SDS011;39461;40.948;73.006;2023-04-16T07:29:11;22.15;;;4.70;;
42866;SDS011;39461;40.948;73.006;2023-04-16T07:31:44;28.17;;;4.82;;
42866;SDS011;39461;40.948;73.006;2023-04-16T07:34:17;24.67;;;3.95;;
42866;SDS011;39461;40.948;73.006;2023-04-16T07:36:50;34.60;;;4.88;;
42866;SDS011;39461;40.948;73.006;2023-04-16T07:39:25;20.58;;;3.60;;
42866;SDS011;39461;40.948;73.006;2023-04-16T07:41:58;31.40;;;4.20;;
42866;SDS011;39461;40.948;73.006;2023-04-16T07:44:33;23.92;;;4.80;;
42866;SDS011;39461;40.948;73.006;2023-04-16T07:47:06;24.95;;;3.78;;
42866;SDS011;39461;40.948;73.006;2023-04-16T07:49:39;21.67;;;3.70;;
42866;SDS011;39461;40.948;73.006;2023-04-16T07:52:13;25.95;;;4.38;;
42866;SDS011;39461;40.948;73.006;2023-04-16T07:54:46;30.63;;;4.60;;
42866;SDS011;39461;40.948;73.006;2023-04-16T07:57:19;27.25;;;4.47;;
42866;SDS011;39461;40.948;73.006;2023-04-16T07:59:52;23.30;;;3.80;;
42866;SDS011;39461;40.948;73.006;2023-04-16T08:02:27;26.63;;;3.53;;
42866;SDS011;39461;40.948;73.006;2023-04-16T08:05:06;23.10;;;3.33;;
42866;SDS011;39461;40.948;73.006;2023-04-16T08:07:40;31.95;;;4.63;;
42866;SDS011;39461;40.948;73.006;2023-04-16T08:10:13;22.13;;;4.07;;
42866;SDS011;39461;40.948;73.006;2023-04-16T08:12:49;22.90;;;4.47;;
42866;SDS011;39461;40.948;73.006;2023-04-16T08:15:22;28.15;;;4.18;;
42866;SDS011;39461;40.948;73.006;2023-04-16T08:17:55;19.05;;;3.63;;
42866;SDS011;39461;40.948;73.006;2023-04-16T08:20:28;30.58;;;4.00;;
42866;SDS011;39461;40.948;73.006;2023-04-16T08:23:02;24.40;;;3.40;;
42866;SDS011;39461;40.948;73.006;2023-04-16T08:25:35;32.58;;;4.70;;
42866;SDS011;39461;40.948;73.006;2023-04-16T08:28:08;47.55;;;5.05;;
42866;SDS011;39461;40.948;73.006;2023-04-16T08:30:41;35.38;;;5.20;;
42866;SDS011;39461;40.948;73.006;2023-04-16T08:33:15;13.13;;;2.80;;
42866;SDS011;39461;40.948;73.006;2023-04-16T08:35:46;30.40;;;5.38;;
42866;SDS011;39461;40.948;73.006;2023-04-16T08:38:15;38.17;;;4.38;;
42866;SDS011;39461;40.948;73.006;2023-04-16T08:40:48;33.17;;;4.38;;
42866;SDS011;39461;40.948;73.006;2023-04-16T08:43:24;30.13;;;5.25;;
42866;SDS011;39461;40.948;73.006;2023-04-16T08:45:58;29.08;;;4.25;;
42866;SDS011;39461;40.948;73.006;2023-04-16T08:48:33;22.17;;;3.67;;
42866;SDS011;39461;40.948;73.006;2023-04-16T08:51:08;34.17;;;5.03;;
42866;SDS011;39461;40.948;73.006;2023-04-16T08:53:50;31.33;;;5.70;;
42866;SDS011;39461;40.948;73.006;2023-04-16T08:56:30;27.45;;;3.60;;
42866;SDS011;39461;40.948;73.006;2023-04-16T08:59:04;28.42;;;4.60;;
42866;SDS011;39461;40.948;73.006;2023-04-16T09:01:37;30.88;;;4.10;;
42866;SDS011;39461;40.948;73.006;2023-04-16T09:04:12;21.02;;;3.38;;
42866;SDS011;39461;40.948;73.006;2023-04-16T09:06:45;36.42;;;4.15;;
42866;SDS011;39461;40.948;73.006;2023-04-16T09:09:20;26.23;;;4.97;;
42866;SDS011;39461;40.948;73.006;2023-04-16T09:11:53;22.77;;;4.35;;
42866;SDS011;39461;40.948;73.006;2023-04-16T09:14:28;35.20;;;4.00;;
42866;SDS011;39461;40.948;73.006;2023-04-16T09:17:04;28.92;;;4.20;;
42866;SDS011;39461;40.948;73.006;2023-04-16T09:19:41;40.65;;;5.63;;
42866;SDS011;39461;40.948;73.006;2023-04-16T09:22:16;26.45;;;4.10;;
42866;SDS011;39461;40.948;73.006;2023-04-16T09:24:51;29.45;;;3.70;;
42866;SDS011;39461;40.948;73.006;2023-04-16T09:27:26;31.55;;;4.18;;
42866;SDS011;39461;40.948;73.006;2023-04-16T09:30:00;34.40;;;4.97;;
42866;SDS011;39461;40.948;73.006;2023-04-16T09:32:33;33.63;;;5.43;;
42866;SDS011;39461;40.948;73.006;2023-04-16T09:35:08;26.30;;;4.45;;
42866;SDS011;39461;40.948;73.006;2023-04-16T09:37:41;31.02;;;4.88;;
42866;SDS011;39461;40.948;73.006;2023-04-16T09:40:15;29.70;;;4.97;;
42866;SDS011;39461;40.948;73.006;2023-04-16T09:42:58;34.13;;;4.75;;
42866;SDS011;39461;40.948;73.006;2023-04-16T09:45:33;27.33;;;3.83;;
42866;SDS011;39461;40.948;73.006;2023-04-16T09:48:28;32.30;;;4.65;;
42866;SDS011;39461;40.948;73.006;2023-04-16T09:51:02;27.45;;;3.97;;
42866;SDS011;39461;40.948;73.006;2023-04-16T09:53:38;21.70;;;4.30;;
42866;SDS011;39461;40.948;73.006;2023-04-16T09:56:11;25.90;;;4.25;;
42866;SDS011;39461;40.948;73.006;2023-04-16T09:58:46;27.00;;;4.50;;
42866;SDS011;39461;40.948;73.006;2023-04-16T10:01:19;25.95;;;4.45;;
42866;SDS011;39461;40.948;73.006;2023-04-16T10:03:53;37.97;;;7.35;;
42866;SDS011;39461;40.948;73.006;2023-04-16T10:06:27;36.25;;;5.82;;
42866;SDS011;39461;40.948;73.006;2023-04-16T10:09:01;38.80;;;5.10;;
42866;SDS011;39461;40.948;73.006;2023-04-16T10:11:40;23.13;;;4.55;;
42866;SDS011;39461;40.948;73.006;2023-04-16T10:14:16;30.08;;;4.57;;
42866;SDS011;39461;40.948;73.006;2023-04-16T10:16:51;29.52;;;4.90;;
42866;SDS011;39461;40.948;73.006;2023-04-16T10:19:33;36.53;;;5.65;;
42866;SDS011;39461;40.948;73.006;2023-04-16T10:22:07;33.60;;;5.57;;
42866;SDS011;39461;40.948;73.006;2023-04-16T10:24:41;22.92;;;5.40;;
42866;SDS011;39461;40.948;73.006;2023-04-16T10:27:20;31.80;;;6.20;;
42866;SDS011;39461;40.948;73.006;2023-04-16T10:29:58;16.67;;;3.97;;
42866;SDS011;39461;40.948;73.006;2023-04-16T10:32:33;32.25;;;6.05;;
42866;SDS011;39461;40.948;73.006;2023-04-16T10:35:13;34.28;;;4.60;;
42866;SDS011;39461;40.948;73.006;2023-04-16T10:37:41;30.58;;;4.68;;
42866;SDS011;39461;40.948;73.006;2023-04-16T10:42:55;25.17;;;4.57;;
42866;SDS011;39461;40.948;73.006;2023-04-16T10:45:31;30.17;;;4.57;;
42866;SDS011;39461;40.948;73.006;2023-04-16T10:48:06;22.02;;;3.83;;
42866;SDS011;39461;40.948;73.006;2023-04-16T10:50:42;26.67;;;4.75;;
42866;SDS011;39461;40.948;73.006;2023-04-16T10:53:28;30.00;;;4.93;;
42866;SDS011;39461;40.948;73.006;2023-04-16T10:58:37;25.00;;;4.55;;
42866;SDS011;39461;40.948;73.006;2023-04-16T11:01:11;36.40;;;5.38;;
42866;SDS011;39461;40.948;73.006;2023-04-16T11:03:47;29.23;;;4.53;;
42866;SDS011;39461;40.948;73.006;2023-04-16T11:06:23;22.08;;;5.22;;
42866;SDS011;39461;40.948;73.006;2023-04-16T11:08:59;29.55;;;5.22;;
42866;SDS011;39461;40.948;73.006;2023-04-16T11:11:36;33.03;;;5.38;;
42866;SDS011;39461;40.948;73.006;2023-04-16T11:17:10;28.13;;;4.35;;
42866;SDS011;39461;40.948;73.006;2023-04-16T11:19:46;27.25;;;5.40;;
42866;SDS011;39461;40.948;73.006;2023-04-16T11:22:19;30.85;;;4.32;;
42866;SDS011;39461;40.948;73.006;2023-04-16T11:24:58;37.00;;;5.78;;
42866;SDS011;39461;40.948;73.006;2023-04-16T11:27:32;23.95;;;4.75;;
42866;SDS011;39461;40.948;73.006;2023-04-16T11:30:05;27.00;;;5.45;;
42866;SDS011;39461;40.948;73.006;2023-04-16T11:32:42;24.70;;;4.63;;
42866;SDS011;39461;40.948;73.006;2023-04-16T11:35:18;30.58;;;4.90;;
42866;SDS011;39461;40.948;73.006;2023-04-16T11:37:54;28.40;;;5.47;;
42866;SDS011;39461;40.948;73.006;2023-04-16T11:40:30;32.58;;;9.18;;
42866;SDS011;39461;40.948;73.006;2023-04-16T11:43:13;32.97;;;9.50;;
42866;SDS011;39461;40.948;73.006;2023-04-16T11:46:03;27.67;;;4.78;;
42866;SDS011;39461;40.948;73.006;2023-04-16T11:48:52;26.48;;;5.10;;
42866;SDS011;39461;40.948;73.006;2023-04-16T11:51:29;37.60;;;7.68;;
42866;SDS011;39461;40.948;73.006;2023-04-16T11:53:57;42.72;;;9.73;;
42866;SDS011;39461;40.948;73.006;2023-04-16T11:56:32;28.23;;;7.38;;
42866;SDS011;39461;40.948;73.006;2023-04-16T11:59:09;42.35;;;7.95;;
42866;SDS011;39461;40.948;73.006;2023-04-16T12:01:49;24.38;;;6.40;;
42866;SDS011;39461;40.948;73.006;2023-04-16T12:04:23;28.45;;;6.50;;
42866;SDS011;39461;40.948;73.006;2023-04-16T12:09:37;28.85;;;6.20;;
42866;SDS011;39461;40.948;73.006;2023-04-16T12:12:29;32.17;;;7.10;;
42866;SDS011;39461;40.948;73.006;2023-04-16T12:15:03;49.35;;;6.38;;
42866;SDS011;39461;40.948;73.006;2023-04-16T12:17:36;32.40;;;5.63;;
42866;SDS011;39461;40.948;73.006;2023-04-16T12:20:13;29.95;;;4.78;;
42866;SDS011;39461;40.948;73.006;2023-04-16T12:22:53;36.88;;;5.82;;
42866;SDS011;39461;40.948;73.006;2023-04-16T12:25:29;26.02;;;10.85;;
42866;SDS011;39461;40.948;73.006;2023-04-16T12:28:02;35.25;;;12.68;;
42866;SDS011;39461;40.948;73.006;2023-04-16T12:30:49;20.77;;;4.10;;
42866;SDS011;39461;40.948;73.006;2023-04-16T12:33:24;32.28;;;5.57;;
42866;SDS011;39461;40.948;73.006;2023-04-16T12:35:57;61.05;;;27.08;;
42866;SDS011;39461;40.948;73.006;2023-04-16T12:38:31;24.73;;;6.55;;
42866;SDS011;39461;40.948;73.006;2023-04-16T12:41:03;20.27;;;4.80;;
42866;SDS011;39461;40.948;73.006;2023-04-16T12:43:39;23.55;;;5.10;;
42866;SDS011;39461;40.948;73.006;2023-04-16T12:46:14;49.58;;;7.88;;
42866;SDS011;39461;40.948;73.006;2023-04-16T12:48:47;36.45;;;6.20;;
42866;SDS011;39461;40.948;73.006;2023-04-16T12:51:26;34.63;;;5.75;;
42866;SDS011;39461;40.948;73.006;2023-04-16T12:53:59;24.30;;;7.20;;
42866;SDS011;39461;40.948;73.006;2023-04-16T12:56:33;41.80;;;16.92;;
42866;SDS011;39461;40.948;73.006;2023-04-16T12:59:11;44.33;;;7.68;;
42866;SDS011;39461;40.948;73.006;2023-04-16T13:01:45;37.30;;;5.95;;
42866;SDS011;39461;40.948;73.006;2023-04-16T13:04:18;26.67;;;6.05;;
42866;SDS011;39461;40.948;73.006;2023-04-16T13:06:47;25.25;;;8.65;;
42866;SDS011;39461;40.948;73.006;2023-04-16T13:09:22;49.97;;;10.48;;
42866;SDS011;39461;40.948;73.006;2023-04-16T13:11:58;28.02;;;5.65;;
42866;SDS011;39461;40.948;73.006;2023-04-16T13:14:31;45.45;;;16.98;;
42866;SDS011;39461;40.948;73.006;2023-04-16T13:17:04;35.50;;;9.48;;
42866;SDS011;39461;40.948;73.006;2023-04-16T13:19:37;24.55;;;6.38;;
42866;SDS011;39461;40.948;73.006;2023-04-16T13:22:10;29.02;;;6.65;;
42866;SDS011;39461;40.948;73.006;2023-04-16T13:24:43;34.05;;;7.47;;
42866;SDS011;39461;40.948;73.006;2023-04-16T13:27:17;32.00;;;6.82;;
42866;SDS011;39461;40.948;73.006;2023-04-16T13:29:51;27.58;;;7.65;;
42866;SDS011;39461;40.948;73.006;2023-04-16T13:32:24;32.88;;;7.55;;
42866;SDS011;39461;40.948;73.006;2023-04-16T13:34:57;35.05;;;7.72;;
42866;SDS011;39461;40.948;73.006;2023-04-16T13:37:33;26.73;;;9.35;;
42866;SDS011;39461;40.948;73.006;2023-04-16T13:40:18;34.53;;;10.32;;
42866;SDS011;39461;40.948;73.006;2023-04-16T13:42:52;33.13;;;9.52;;
42866;SDS011;39461;40.948;73.006;2023-04-16T13:45:29;40.67;;;10.63;;
42866;SDS011;39461;40.948;73.006;2023-04-16T13:48:02;37.78;;;10.95;;
42866;SDS011;39461;40.948;73.006;2023-04-16T13:50:36;53.90;;;12.20;;
42866;SDS011;39461;40.948;73.006;2023-04-16T13:53:09;49.50;;;12.48;;
42866;SDS011;39461;40.948;73.006;2023-04-16T13:55:43;46.33;;;12.65;;
42866;SDS011;39461;40.948;73.006;2023-04-16T13:58:16;51.22;;;12.85;;
42866;SDS011;39461;40.948;73.006;2023-04-16T14:00:49;48.55;;;12.43;;
42866;SDS011;39461;40.948;73.006;2023-04-16T14:03:26;66.57;;;17.25;;
42866;SDS011;39461;40.948;73.006;2023-04-16T14:06:00;48.03;;;16.48;;
42866;SDS011;39461;40.948;73.006;2023-04-16T14:08:33;66.75;;;16.60;;
42866;SDS011;39461;40.948;73.006;2023-04-16T14:11:07;51.97;;;15.43;;
42866;SDS011;39461;40.948;73.006;2023-04-16T14:13:40;49.40;;;13.85;;
42866;SDS011;39461;40.948;73.006;2023-04-16T14:16:14;34.00;;;12.57;;
42866;SDS011;39461;40.948;73.006;2023-04-16T14:18:47;39.88;;;13.18;;
42866;SDS011;39461;40.948;73.006;2023-04-16T14:21:20;38.30;;;13.25;;
42866;SDS011;39461;40.948;73.006;2023-04-16T14:23:53;42.75;;;15.85;;
42866;SDS011;39461;40.948;73.006;2023-04-16T14:26:26;61.13;;;21.65;;
42866;SDS011;39461;40.948;73.006;2023-04-16T14:28:59;57.65;;;23.63;;
42866;SDS011;39461;40.948;73.006;2023-04-16T14:31:33;62.17;;;26.00;;
42866;SDS011;39461;40.948;73.006;2023-04-16T14:34:06;54.70;;;22.45;;
42866;SDS011;39461;40.948;73.006;2023-04-16T14:36:38;54.90;;;22.25;;
42866;SDS011;39461;40.948;73.006;2023-04-16T14:39:10;59.67;;;23.25;;
42866;SDS011;39461;40.948;73.006;2023-04-16T14:41:44;69.97;;;26.70;;
42866;SDS011;39461;40.948;73.006;2023-04-16T14:44:19;72.30;;;25.70;;
42866;SDS011;39461;40.948;73.006;2023-04-16T14:46:53;57.80;;;20.13;;
42866;SDS011;39461;40.948;73.006;2023-04-16T14:49:26;42.33;;;18.60;;
42866;SDS011;39461;40.948;73.006;2023-04-16T14:52:00;40.40;;;16.42;;
42866;SDS011;39461;40.948;73.006;2023-04-16T14:54:34;42.55;;;15.35;;
42866;SDS011;39461;40.948;73.006;2023-04-16T14:57:08;39.33;;;15.70;;
42866;SDS011;39461;40.948;73.006;2023-04-16T14:59:43;41.10;;;14.15;;
42866;SDS011;39461;40.948;73.006;2023-04-16T15:02:16;50.95;;;14.32;;
42866;SDS011;39461;40.948;73.006;2023-04-16T15:04:49;54.63;;;14.43;;
42866;SDS011;39461;40.948;73.006;2023-04-16T15:07:23;41.90;;;15.57;;
42866;SDS011;39461;40.948;73.006;2023-04-16T15:09:57;38.85;;;16.27;;
42866;SDS011;39461;40.948;73.006;2023-04-16T15:12:31;37.75;;;16.50;;
42866;SDS011;39461;40.948;73.006;2023-04-16T15:15:04;37.83;;;17.13;;
42866;SDS011;39461;40.948;73.006;2023-04-16T15:17:38;62.78;;;19.75;;
42866;SDS011;39461;40.948;73.006;2023-04-16T15:20:11;75.47;;;26.13;;
42866;SDS011;39461;40.948;73.006;2023-04-16T15:22:45;65.28;;;26.30;;
42866;SDS011;39461;40.948;73.006;2023-04-16T15:25:24;70.60;;;24.27;;